sensor_id;sensor_type;location;lat;lon;timestamp;P1;durP1;ratioP1;P2;durP2;ratioP2
5890;SDS011;2971;52.420;7.080;2023-06-22T00:01:03;21.97;;;19.93;;
5890;SDS011;2971;52.420;7.080;2023-06-22T00:03:28;21.43;;;19.50;;
5890;SDS011;2971;52.420;7.080;2023-06-22T00:05:54;20.60;;;18.80;;
5890;SDS011;2971;52.420;7.080;2023-06-22T00:08:19;21.60;;;19.60;;
5890;SDS011;2971;52.420;7.080;2023-06-22T00:10:45;20.07;;;18.23;;
5890;SDS011;2971;52.420;7.080;2023-06-22T00:13:12;20.30;;;18.40;;
5890;SDS011;2971;52.420;7.080;2023-06-22T00:15:39;20.93;;;18.93;;
5890;SDS011;2971;52.420;7.080;2023-06-22T00:18:08;22.83;;;20.73;;
5890;SDS011;2971;52.420;7.080;2023-06-22T00:20:34;23.73;;;21.63;;
5890;SDS011;2971;52.420;7.080;2023-06-22T00:23:02;22.30;;;20.30;;
5890;SDS011;2971;52.420;7.080;2023-06-22T00:25:33;23.93;;;21.73;;
5890;SDS011;2971;52.420;7.080;2023-06-22T00:27:59;24.90;;;22.70;;
5890;SDS011;2971;52.420;7.080;2023-06-22T00:30:25;23.97;;;21.77;;
5890;SDS011;2971;52.420;7.080;2023-06-22T00:32:50;24.70;;;22.40;;
5890;SDS011;2971;52.420;7.080;2023-06-22T00:35:16;24.50;;;22.17;;
5890;SDS011;2971;52.420;7.080;2023-06-22T00:37:41;25.73;;;23.40;;
5890;SDS011;2971;52.420;7.080;2023-06-22T00:40:07;24.50;;;22.30;;
5890;SDS011;2971;52.420;7.080;2023-06-22T00:42:36;25.67;;;23.37;;
5890;SDS011;2971;52.420;7.080;2023-06-22T00:45:01;25.07;;;22.70;;
5890;SDS011;2971;52.420;7.080;2023-06-22T00:47:27;24.43;;;22.33;;
5890;SDS011;2971;52.420;7.080;2023-06-22T00:49:52;26.33;;;24.07;;
5890;SDS011;2971;52.420;7.080;2023-06-22T00:52:19;25.60;;;23.27;;
5890;SDS011;2971;52.420;7.080;2023-06-22T00:54:47;24.43;;;22.23;;
5890;SDS011;2971;52.420;7.080;2023-06-22T00:57:14;26.67;;;24.23;;
5890;SDS011;2971;52.420;7.080;2023-06-22T00:59:43;27.27;;;24.97;;
5890;SDS011;2971;52.420;7.080;2023-06-22T01:02:09;25.97;;;23.57;;
5890;SDS011;2971;52.420;7.080;2023-06-22T01:04:35;28.13;;;25.43;;
5890;SDS011;2971;52.420;7.080;2023-06-22T01:09:41;28.60;;;25.87;;
5890;SDS011;2971;52.420;7.080;2023-06-22T01:12:14;29.67;;;26.97;;
5890;SDS011;2971;52.420;7.080;2023-06-22T01:14:41;28.97;;;26.27;;
5890;SDS011;2971;52.420;7.080;2023-06-22T01:17:10;29.63;;;26.93;;
5890;SDS011;2971;52.420;7.080;2023-06-22T01:19:44;30.13;;;27.13;;
5890;SDS011;2971;52.420;7.080;2023-06-22T01:22:20;29.57;;;26.77;;
5890;SDS011;2971;52.420;7.080;2023-06-22T01:30:40;29.13;;;26.57;;
5890;SDS011;2971;52.420;7.080;2023-06-22T01:33:07;29.90;;;27.03;;
5890;SDS011;2971;52.420;7.080;2023-06-22T01:35:35;31.40;;;28.50;;
5890;SDS011;2971;52.420;7.080;2023-06-22T01:38:02;30.43;;;27.73;;
5890;SDS011;2971;52.420;7.080;2023-06-22T01:40:28;30.20;;;27.40;;
5890;SDS011;2971;52.420;7.080;2023-06-22T01:42:54;32.67;;;29.60;;
5890;SDS011;2971;52.420;7.080;2023-06-22T01:45:19;30.80;;;28.00;;
5890;SDS011;2971;52.420;7.080;2023-06-22T01:47:45;32.97;;;29.57;;
5890;SDS011;2971;52.420;7.080;2023-06-22T01:50:11;33.20;;;30.20;;
5890;SDS011;2971;52.420;7.080;2023-06-22T01:52:36;32.83;;;29.93;;
5890;SDS011;2971;52.420;7.080;2023-06-22T01:55:02;34.57;;;31.33;;
5890;SDS011;2971;52.420;7.080;2023-06-22T01:57:29;32.37;;;29.43;;
5890;SDS011;2971;52.420;7.080;2023-06-22T01:59:59;33.27;;;30.27;;
5890;SDS011;2971;52.420;7.080;2023-06-22T02:02:27;33.33;;;30.40;;
5890;SDS011;2971;52.420;7.080;2023-06-22T02:05:08;33.03;;;30.17;;
5890;SDS011;2971;52.420;7.080;2023-06-22T02:07:41;34.53;;;31.17;;
5890;SDS011;2971;52.420;7.080;2023-06-22T02:10:10;35.27;;;31.97;;
5890;SDS011;2971;52.420;7.080;2023-06-22T02:12:38;35.47;;;32.17;;
5890;SDS011;2971;52.420;7.080;2023-06-22T02:15:04;34.63;;;31.43;;
5890;SDS011;2971;52.420;7.080;2023-06-22T02:17:30;36.43;;;33.03;;
5890;SDS011;2971;52.420;7.080;2023-06-22T02:19:58;35.20;;;31.90;;
5890;SDS011;2971;52.420;7.080;2023-06-22T02:22:23;36.10;;;32.80;;
5890;SDS011;2971;52.420;7.080;2023-06-22T02:24:49;34.43;;;31.33;;
5890;SDS011;2971;52.420;7.080;2023-06-22T02:27:14;36.10;;;32.90;;
5890;SDS011;2971;52.420;7.080;2023-06-22T02:29:40;37.37;;;34.07;;
5890;SDS011;2971;52.420;7.080;2023-06-22T02:32:05;37.40;;;33.97;;
5890;SDS011;2971;52.420;7.080;2023-06-22T02:34:31;39.63;;;35.77;;
5890;SDS011;2971;52.420;7.080;2023-06-22T02:36:58;39.27;;;35.67;;
5890;SDS011;2971;52.420;7.080;2023-06-22T02:39:26;38.30;;;34.80;;
5890;SDS011;2971;52.420;7.080;2023-06-22T02:41:51;39.47;;;35.67;;
5890;SDS011;2971;52.420;7.080;2023-06-22T02:44:19;38.00;;;34.57;;
5890;SDS011;2971;52.420;7.080;2023-06-22T02:46:45;39.00;;;35.50;;
5890;SDS011;2971;52.420;7.080;2023-06-22T02:49:11;40.30;;;36.37;;
5890;SDS011;2971;52.420;7.080;2023-06-22T02:51:38;41.67;;;37.67;;
5890;SDS011;2971;52.420;7.080;2023-06-22T02:54:04;40.63;;;37.03;;
5890;SDS011;2971;52.420;7.080;2023-06-22T02:56:32;40.07;;;36.27;;
5890;SDS011;2971;52.420;7.080;2023-06-22T02:58:58;44.30;;;40.30;;
5890;SDS011;2971;52.420;7.080;2023-06-22T03:01:29;44.93;;;40.63;;
5890;SDS011;2971;52.420;7.080;2023-06-22T03:03:58;47.47;;;43.00;;
5890;SDS011;2971;52.420;7.080;2023-06-22T03:06:24;45.33;;;41.13;;
5890;SDS011;2971;52.420;7.080;2023-06-22T03:08:58;42.93;;;38.83;;
5890;SDS011;2971;52.420;7.080;2023-06-22T03:11:28;45.97;;;41.77;;
5890;SDS011;2971;52.420;7.080;2023-06-22T03:13:53;46.30;;;41.90;;
5890;SDS011;2971;52.420;7.080;2023-06-22T03:16:19;45.70;;;41.70;;
5890;SDS011;2971;52.420;7.080;2023-06-22T03:18:44;48.00;;;43.33;;
5890;SDS011;2971;52.420;7.080;2023-06-22T03:21:10;44.53;;;40.53;;
5890;SDS011;2971;52.420;7.080;2023-06-22T03:23:35;47.23;;;42.97;;
5890;SDS011;2971;52.420;7.080;2023-06-22T03:26:01;47.30;;;43.00;;
5890;SDS011;2971;52.420;7.080;2023-06-22T03:28:27;47.10;;;42.83;;
5890;SDS011;2971;52.420;7.080;2023-06-22T03:30:52;48.43;;;43.93;;
5890;SDS011;2971;52.420;7.080;2023-06-22T03:33:18;46.93;;;42.73;;
5890;SDS011;2971;52.420;7.080;2023-06-22T03:35:43;47.67;;;43.07;;
5890;SDS011;2971;52.420;7.080;2023-06-22T03:38:09;47.87;;;43.37;;
5890;SDS011;2971;52.420;7.080;2023-06-22T03:40:34;47.97;;;43.43;;
5890;SDS011;2971;52.420;7.080;2023-06-22T03:43:00;46.97;;;42.57;;
5890;SDS011;2971;52.420;7.080;2023-06-22T03:45:25;49.07;;;44.23;;
5890;SDS011;2971;52.420;7.080;2023-06-22T03:47:50;47.40;;;42.93;;
5890;SDS011;2971;52.420;7.080;2023-06-22T03:50:16;48.47;;;43.70;;
5890;SDS011;2971;52.420;7.080;2023-06-22T03:52:41;46.73;;;42.33;;
5890;SDS011;2971;52.420;7.080;2023-06-22T03:55:07;49.00;;;44.37;;
5890;SDS011;2971;52.420;7.080;2023-06-22T03:57:33;50.13;;;45.33;;
5890;SDS011;2971;52.420;7.080;2023-06-22T03:59:58;50.87;;;45.80;;
5890;SDS011;2971;52.420;7.080;2023-06-22T04:02:24;51.10;;;46.30;;
5890;SDS011;2971;52.420;7.080;2023-06-22T04:04:49;50.00;;;45.40;;
5890;SDS011;2971;52.420;7.080;2023-06-22T04:07:16;52.67;;;47.53;;
5890;SDS011;2971;52.420;7.080;2023-06-22T04:09:43;51.57;;;46.80;;
5890;SDS011;2971;52.420;7.080;2023-06-22T04:12:09;49.17;;;44.70;;
5890;SDS011;2971;52.420;7.080;2023-06-22T04:14:35;50.57;;;45.93;;
5890;SDS011;2971;52.420;7.080;2023-06-22T04:17:01;50.03;;;45.33;;
5890;SDS011;2971;52.420;7.080;2023-06-22T04:19:26;48.83;;;44.37;;
5890;SDS011;2971;52.420;7.080;2023-06-22T04:21:51;49.30;;;44.50;;
5890;SDS011;2971;52.420;7.080;2023-06-22T04:24:17;50.33;;;45.33;;
5890;SDS011;2971;52.420;7.080;2023-06-22T04:26:42;47.20;;;42.70;;
5890;SDS011;2971;52.420;7.080;2023-06-22T04:29:10;48.13;;;43.63;;
5890;SDS011;2971;52.420;7.080;2023-06-22T04:31:35;49.40;;;44.87;;
5890;SDS011;2971;52.420;7.080;2023-06-22T04:34:02;49.73;;;45.00;;
5890;SDS011;2971;52.420;7.080;2023-06-22T04:36:32;49.53;;;44.73;;
5890;SDS011;2971;52.420;7.080;2023-06-22T04:39:07;48.07;;;43.47;;
5890;SDS011;2971;52.420;7.080;2023-06-22T04:41:35;48.63;;;43.77;;
5890;SDS011;2971;52.420;7.080;2023-06-22T04:44:11;46.50;;;42.00;;
5890;SDS011;2971;52.420;7.080;2023-06-22T04:46:37;49.37;;;44.43;;
5890;SDS011;2971;52.420;7.080;2023-06-22T04:49:07;49.27;;;44.40;;
5890;SDS011;2971;52.420;7.080;2023-06-22T04:51:43;48.53;;;43.90;;
5890;SDS011;2971;52.420;7.080;2023-06-22T04:54:09;50.27;;;45.40;;
5890;SDS011;2971;52.420;7.080;2023-06-22T04:56:34;48.40;;;43.90;;
5890;SDS011;2971;52.420;7.080;2023-06-22T04:59:00;49.23;;;44.43;;
5890;SDS011;2971;52.420;7.080;2023-06-22T05:01:26;50.67;;;45.77;;
5890;SDS011;2971;52.420;7.080;2023-06-22T05:03:51;50.03;;;45.20;;
5890;SDS011;2971;52.420;7.080;2023-06-22T05:06:23;49.70;;;44.77;;
5890;SDS011;2971;52.420;7.080;2023-06-22T05:08:58;50.77;;;45.53;;
5890;SDS011;2971;52.420;7.080;2023-06-22T05:11:27;48.27;;;43.73;;
5890;SDS011;2971;52.420;7.080;2023-06-22T05:13:52;50.23;;;45.47;;
5890;SDS011;2971;52.420;7.080;2023-06-22T05:16:18;49.47;;;44.93;;
5890;SDS011;2971;52.420;7.080;2023-06-22T05:18:49;47.63;;;43.07;;
5890;SDS011;2971;52.420;7.080;2023-06-22T05:21:18;46.57;;;41.90;;
5890;SDS011;2971;52.420;7.080;2023-06-22T05:23:46;41.13;;;37.23;;
5890;SDS011;2971;52.420;7.080;2023-06-22T05:26:11;38.57;;;34.83;;
5890;SDS011;2971;52.420;7.080;2023-06-22T05:28:37;38.77;;;34.80;;
5890;SDS011;2971;52.420;7.080;2023-06-22T05:31:02;37.73;;;34.10;;
5890;SDS011;2971;52.420;7.080;2023-06-22T05:33:28;35.87;;;32.57;;
5890;SDS011;2971;52.420;7.080;2023-06-22T05:35:54;35.13;;;31.53;;
5890;SDS011;2971;52.420;7.080;2023-06-22T05:38:19;35.80;;;32.33;;
5890;SDS011;2971;52.420;7.080;2023-06-22T05:40:45;31.80;;;28.97;;
5890;SDS011;2971;52.420;7.080;2023-06-22T05:43:10;30.53;;;27.40;;
5890;SDS011;2971;52.420;7.080;2023-06-22T05:45:35;29.63;;;26.73;;
5890;SDS011;2971;52.420;7.080;2023-06-22T05:48:01;28.03;;;25.27;;
5890;SDS011;2971;52.420;7.080;2023-06-22T05:50:26;26.70;;;24.13;;
5890;SDS011;2971;52.420;7.080;2023-06-22T05:52:52;28.77;;;26.00;;
5890;SDS011;2971;52.420;7.080;2023-06-22T05:55:17;25.40;;;22.90;;
5890;SDS011;2971;52.420;7.080;2023-06-22T05:57:44;25.17;;;22.77;;
5890;SDS011;2971;52.420;7.080;2023-06-22T06:00:10;26.63;;;23.73;;
5890;SDS011;2971;52.420;7.080;2023-06-22T06:02:36;26.20;;;23.40;;
5890;SDS011;2971;52.420;7.080;2023-06-22T06:05:02;24.47;;;21.07;;
5890;SDS011;2971;52.420;7.080;2023-06-22T06:07:28;23.97;;;20.10;;
5890;SDS011;2971;52.420;7.080;2023-06-22T06:09:54;19.47;;;17.40;;
5890;SDS011;2971;52.420;7.080;2023-06-22T06:12:19;21.37;;;18.77;;
5890;SDS011;2971;52.420;7.080;2023-06-22T06:14:45;21.30;;;18.20;;
5890;SDS011;2971;52.420;7.080;2023-06-22T06:17:10;20.43;;;16.63;;
5890;SDS011;2971;52.420;7.080;2023-06-22T06:19:36;18.60;;;15.73;;
5890;SDS011;2971;52.420;7.080;2023-06-22T06:22:01;17.30;;;15.50;;
5890;SDS011;2971;52.420;7.080;2023-06-22T06:24:26;16.37;;;14.70;;
5890;SDS011;2971;52.420;7.080;2023-06-22T06:26:52;16.33;;;14.63;;
5890;SDS011;2971;52.420;7.080;2023-06-22T06:29:17;16.63;;;14.83;;
5890;SDS011;2971;52.420;7.080;2023-06-22T06:31:43;16.40;;;13.87;;
5890;SDS011;2971;52.420;7.080;2023-06-22T06:34:08;16.07;;;13.93;;
5890;SDS011;2971;52.420;7.080;2023-06-22T06:36:33;13.77;;;12.23;;
5890;SDS011;2971;52.420;7.080;2023-06-22T06:38:59;15.93;;;12.60;;
5890;SDS011;2971;52.420;7.080;2023-06-22T06:41:24;14.80;;;13.17;;
5890;SDS011;2971;52.420;7.080;2023-06-22T06:43:50;14.63;;;12.57;;
5890;SDS011;2971;52.420;7.080;2023-06-22T06:46:15;17.30;;;13.03;;
5890;SDS011;2971;52.420;7.080;2023-06-22T06:48:40;12.37;;;11.07;;
5890;SDS011;2971;52.420;7.080;2023-06-22T06:51:06;13.60;;;12.07;;
5890;SDS011;2971;52.420;7.080;2023-06-22T06:53:34;13.83;;;9.90;;
5890;SDS011;2971;52.420;7.080;2023-06-22T06:56:00;15.60;;;12.13;;
5890;SDS011;2971;52.420;7.080;2023-06-22T06:58:26;12.80;;;10.33;;
5890;SDS011;2971;52.420;7.080;2023-06-22T07:00:52;10.90;;;9.67;;
5890;SDS011;2971;52.420;7.080;2023-06-22T07:03:17;12.57;;;10.40;;
5890;SDS011;2971;52.420;7.080;2023-06-22T07:05:43;10.90;;;9.70;;
5890;SDS011;2971;52.420;7.080;2023-06-22T07:08:08;10.37;;;9.27;;
5890;SDS011;2971;52.420;7.080;2023-06-22T07:10:33;11.80;;;9.37;;
5890;SDS011;2971;52.420;7.080;2023-06-22T07:12:59;11.97;;;9.50;;
5890;SDS011;2971;52.420;7.080;2023-06-22T07:15:24;10.47;;;8.90;;
5890;SDS011;2971;52.420;7.080;2023-06-22T07:17:50;16.53;;;8.73;;
5890;SDS011;2971;52.420;7.080;2023-06-22T07:20:15;10.13;;;8.23;;
5890;SDS011;2971;52.420;7.080;2023-06-22T07:22:43;10.13;;;8.20;;
5890;SDS011;2971;52.420;7.080;2023-06-22T07:25:12;8.90;;;8.00;;
5890;SDS011;2971;52.420;7.080;2023-06-22T07:27:39;8.87;;;7.33;;
5890;SDS011;2971;52.420;7.080;2023-06-22T07:30:08;8.60;;;7.70;;
5890;SDS011;2971;52.420;7.080;2023-06-22T07:32:34;9.67;;;7.50;;
5890;SDS011;2971;52.420;7.080;2023-06-22T07:35:00;20.93;;;9.47;;
5890;SDS011;2971;52.420;7.080;2023-06-22T07:37:26;12.63;;;8.20;;
5890;SDS011;2971;52.420;7.080;2023-06-22T07:39:53;10.00;;;7.57;;
5890;SDS011;2971;52.420;7.080;2023-06-22T07:42:23;9.97;;;7.37;;
5890;SDS011;2971;52.420;7.080;2023-06-22T07:44:49;9.60;;;6.97;;
5890;SDS011;2971;52.420;7.080;2023-06-22T07:47:16;11.03;;;7.93;;
5890;SDS011;2971;52.420;7.080;2023-06-22T07:49:43;8.77;;;6.40;;
5890;SDS011;2971;52.420;7.080;2023-06-22T07:52:08;9.73;;;7.80;;
5890;SDS011;2971;52.420;7.080;2023-06-22T07:54:34;8.13;;;6.97;;
5890;SDS011;2971;52.420;7.080;2023-06-22T07:56:59;9.83;;;7.43;;
5890;SDS011;2971;52.420;7.080;2023-06-22T07:59:24;11.47;;;7.73;;
5890;SDS011;2971;52.420;7.080;2023-06-22T08:01:50;8.30;;;7.27;;
5890;SDS011;2971;52.420;7.080;2023-06-22T08:04:15;9.80;;;7.67;;
5890;SDS011;2971;52.420;7.080;2023-06-22T08:06:41;9.20;;;7.97;;
5890;SDS011;2971;52.420;7.080;2023-06-22T08:09:06;8.53;;;7.60;;
5890;SDS011;2971;52.420;7.080;2023-06-22T08:11:31;10.00;;;8.97;;
5890;SDS011;2971;52.420;7.080;2023-06-22T08:13:57;8.73;;;7.83;;
5890;SDS011;2971;52.420;7.080;2023-06-22T08:16:23;8.30;;;6.73;;
5890;SDS011;2971;52.420;7.080;2023-06-22T08:18:49;9.17;;;7.50;;
5890;SDS011;2971;52.420;7.080;2023-06-22T08:21:14;11.50;;;6.97;;
5890;SDS011;2971;52.420;7.080;2023-06-22T08:23:40;8.77;;;7.40;;
5890;SDS011;2971;52.420;7.080;2023-06-22T08:26:05;9.10;;;8.20;;
5890;SDS011;2971;52.420;7.080;2023-06-22T08:28:30;8.75;;;7.85;;
5890;SDS011;2971;52.420;7.080;2023-06-22T08:30:56;7.95;;;7.15;;
5890;SDS011;2971;52.420;7.080;2023-06-22T08:33:21;11.20;;;8.90;;
5890;SDS011;2971;52.420;7.080;2023-06-22T08:35:54;13.18;;;8.95;;
5890;SDS011;2971;52.420;7.080;2023-06-22T08:38:20;10.77;;;7.85;;
5890;SDS011;2971;52.420;7.080;2023-06-22T08:40:45;9.10;;;7.47;;
5890;SDS011;2971;52.420;7.080;2023-06-22T08:43:11;9.73;;;8.35;;
5890;SDS011;2971;52.420;7.080;2023-06-22T08:45:36;11.55;;;8.25;;
5890;SDS011;2971;52.420;7.080;2023-06-22T08:48:02;11.23;;;9.00;;
5890;SDS011;2971;52.420;7.080;2023-06-22T08:50:27;9.52;;;8.63;;
5890;SDS011;2971;52.420;7.080;2023-06-22T08:52:53;8.80;;;7.97;;
5890;SDS011;2971;52.420;7.080;2023-06-22T08:55:18;8.43;;;7.35;;
5890;SDS011;2971;52.420;7.080;2023-06-22T08:57:44;8.43;;;7.65;;
5890;SDS011;2971;52.420;7.080;2023-06-22T09:00:09;9.35;;;7.70;;
5890;SDS011;2971;52.420;7.080;2023-06-22T09:02:48;8.85;;;7.95;;
5890;SDS011;2971;52.420;7.080;2023-06-22T09:05:14;11.55;;;8.23;;
5890;SDS011;2971;52.420;7.080;2023-06-22T09:07:39;8.65;;;7.50;;
5890;SDS011;2971;52.420;7.080;2023-06-22T09:10:05;7.75;;;6.95;;
5890;SDS011;2971;52.420;7.080;2023-06-22T09:12:31;7.80;;;7.10;;
5890;SDS011;2971;52.420;7.080;2023-06-22T09:14:58;7.13;;;6.50;;
5890;SDS011;2971;52.420;7.080;2023-06-22T09:17:25;8.18;;;6.72;;
5890;SDS011;2971;52.420;7.080;2023-06-22T09:19:53;8.45;;;6.88;;
5890;SDS011;2971;52.420;7.080;2023-06-22T09:22:19;8.48;;;7.68;;
5890;SDS011;2971;52.420;7.080;2023-06-22T09:24:44;11.27;;;7.82;;
5890;SDS011;2971;52.420;7.080;2023-06-22T09:27:10;9.20;;;8.25;;
5890;SDS011;2971;52.420;7.080;2023-06-22T09:29:35;8.77;;;7.82;;
5890;SDS011;2971;52.420;7.080;2023-06-22T09:32:00;8.25;;;7.40;;
5890;SDS011;2971;52.420;7.080;2023-06-22T09:34:26;9.65;;;7.18;;
5890;SDS011;2971;52.420;7.080;2023-06-22T09:36:52;8.23;;;6.80;;
5890;SDS011;2971;52.420;7.080;2023-06-22T09:39:18;10.35;;;8.18;;
5890;SDS011;2971;52.420;7.080;2023-06-22T09:41:44;8.18;;;7.32;;
5890;SDS011;2971;52.420;7.080;2023-06-22T09:44:09;11.75;;;9.50;;
5890;SDS011;2971;52.420;7.080;2023-06-22T09:46:34;10.68;;;9.57;;
5890;SDS011;2971;52.420;7.080;2023-06-22T09:49:00;10.55;;;9.55;;
5890;SDS011;2971;52.420;7.080;2023-06-22T09:51:25;9.38;;;8.38;;
5890;SDS011;2971;52.420;7.080;2023-06-22T09:53:51;9.38;;;8.38;;
5890;SDS011;2971;52.420;7.080;2023-06-22T09:56:18;9.10;;;8.23;;
5890;SDS011;2971;52.420;7.080;2023-06-22T09:58:44;9.30;;;8.20;;
5890;SDS011;2971;52.420;7.080;2023-06-22T10:01:11;9.65;;;8.63;;
5890;SDS011;2971;52.420;7.080;2023-06-22T10:03:37;9.90;;;9.00;;
5890;SDS011;2971;52.420;7.080;2023-06-22T10:06:02;13.93;;;9.57;;
5890;SDS011;2971;52.420;7.080;2023-06-22T10:08:28;10.60;;;9.50;;
5890;SDS011;2971;52.420;7.080;2023-06-22T10:10:53;10.35;;;8.70;;
5890;SDS011;2971;52.420;7.080;2023-06-22T10:13:19;9.80;;;8.80;;
5890;SDS011;2971;52.420;7.080;2023-06-22T10:15:45;9.48;;;8.55;;
5890;SDS011;2971;52.420;7.080;2023-06-22T10:18:15;9.30;;;8.40;;
5890;SDS011;2971;52.420;7.080;2023-06-22T10:20:41;9.95;;;8.02;;
5890;SDS011;2971;52.420;7.080;2023-06-22T10:23:06;10.25;;;8.82;;
5890;SDS011;2971;52.420;7.080;2023-06-22T10:25:32;9.27;;;8.38;;
5890;SDS011;2971;52.420;7.080;2023-06-22T10:27:57;8.50;;;7.63;;
5890;SDS011;2971;52.420;7.080;2023-06-22T10:30:22;10.60;;;9.27;;
5890;SDS011;2971;52.420;7.080;2023-06-22T10:32:48;9.50;;;8.45;;
5890;SDS011;2971;52.420;7.080;2023-06-22T10:35:14;9.80;;;8.90;;
5890;SDS011;2971;52.420;7.080;2023-06-22T10:37:44;10.27;;;9.23;;
5890;SDS011;2971;52.420;7.080;2023-06-22T10:40:11;9.45;;;8.38;;
5890;SDS011;2971;52.420;7.080;2023-06-22T10:42:40;10.05;;;8.10;;
5890;SDS011;2971;52.420;7.080;2023-06-22T10:45:06;9.45;;;8.52;;
5890;SDS011;2971;52.420;7.080;2023-06-22T10:47:32;12.82;;;9.55;;
5890;SDS011;2971;52.420;7.080;2023-06-22T10:49:58;11.18;;;9.90;;
5890;SDS011;2971;52.420;7.080;2023-06-22T10:52:23;10.70;;;9.60;;
5890;SDS011;2971;52.420;7.080;2023-06-22T10:54:49;10.63;;;9.63;;
5890;SDS011;2971;52.420;7.080;2023-06-22T10:57:14;11.98;;;9.23;;
5890;SDS011;2971;52.420;7.080;2023-06-22T10:59:40;11.52;;;9.18;;
5890;SDS011;2971;52.420;7.080;2023-06-22T11:02:05;10.10;;;8.70;;
5890;SDS011;2971;52.420;7.080;2023-06-22T11:04:31;10.23;;;9.18;;
5890;SDS011;2971;52.420;7.080;2023-06-22T11:06:56;9.30;;;8.40;;
5890;SDS011;2971;52.420;7.080;2023-06-22T11:09:22;11.05;;;9.43;;
5890;SDS011;2971;52.420;7.080;2023-06-22T11:11:47;11.73;;;8.38;;
5890;SDS011;2971;52.420;7.080;2023-06-22T11:14:14;9.65;;;8.75;;
5890;SDS011;2971;52.420;7.080;2023-06-22T11:16:39;9.80;;;8.80;;
5890;SDS011;2971;52.420;7.080;2023-06-22T11:19:04;10.87;;;9.30;;
5890;SDS011;2971;52.420;7.080;2023-06-22T11:21:30;9.55;;;8.02;;
5890;SDS011;2971;52.420;7.080;2023-06-22T11:23:56;9.35;;;8.15;;
5890;SDS011;2971;52.420;7.080;2023-06-22T11:26:22;11.90;;;9.52;;
5890;SDS011;2971;52.420;7.080;2023-06-22T11:28:47;9.32;;;8.27;;
5890;SDS011;2971;52.420;7.080;2023-06-22T11:31:13;10.10;;;9.10;;
5890;SDS011;2971;52.420;7.080;2023-06-22T11:33:39;10.48;;;9.48;;
5890;SDS011;2971;52.420;7.080;2023-06-22T11:36:04;9.98;;;8.88;;
5890;SDS011;2971;52.420;7.080;2023-06-22T11:38:30;10.90;;;9.90;;
5890;SDS011;2971;52.420;7.080;2023-06-22T11:40:57;13.38;;;9.98;;
5890;SDS011;2971;52.420;7.080;2023-06-22T11:43:23;11.70;;;9.93;;
5890;SDS011;2971;52.420;7.080;2023-06-22T11:45:48;11.35;;;10.25;;
5890;SDS011;2971;52.420;7.080;2023-06-22T11:48:14;12.50;;;11.30;;
5890;SDS011;2971;52.420;7.080;2023-06-22T11:50:39;10.80;;;9.73;;
5890;SDS011;2971;52.420;7.080;2023-06-22T11:53:05;11.50;;;10.40;;
5890;SDS011;2971;52.420;7.080;2023-06-22T11:55:30;11.68;;;10.57;;
5890;SDS011;2971;52.420;7.080;2023-06-22T11:57:56;12.13;;;10.70;;
5890;SDS011;2971;52.420;7.080;2023-06-22T12:00:28;11.70;;;10.60;;
5890;SDS011;2971;52.420;7.080;2023-06-22T12:02:54;11.43;;;10.23;;
5890;SDS011;2971;52.420;7.080;2023-06-22T12:05:21;14.40;;;11.98;;
5890;SDS011;2971;52.420;7.080;2023-06-22T12:07:47;12.48;;;11.25;;
5890;SDS011;2971;52.420;7.080;2023-06-22T12:10:13;14.00;;;12.10;;
5890;SDS011;2971;52.420;7.080;2023-06-22T12:12:38;12.43;;;11.07;;
5890;SDS011;2971;52.420;7.080;2023-06-22T12:15:03;12.90;;;11.52;;
5890;SDS011;2971;52.420;7.080;2023-06-22T12:17:29;12.35;;;11.18;;
5890;SDS011;2971;52.420;7.080;2023-06-22T12:19:55;11.57;;;10.48;;
5890;SDS011;2971;52.420;7.080;2023-06-22T12:22:20;12.18;;;10.98;;
5890;SDS011;2971;52.420;7.080;2023-06-22T12:24:46;14.07;;;10.63;;
5890;SDS011;2971;52.420;7.080;2023-06-22T12:27:11;12.53;;;11.27;;
5890;SDS011;2971;52.420;7.080;2023-06-22T12:29:37;12.23;;;10.53;;
5890;SDS011;2971;52.420;7.080;2023-06-22T12:32:02;11.40;;;10.23;;
5890;SDS011;2971;52.420;7.080;2023-06-22T12:34:28;11.87;;;10.67;;
5890;SDS011;2971;52.420;7.080;2023-06-22T12:36:53;13.33;;;11.00;;
5890;SDS011;2971;52.420;7.080;2023-06-22T12:39:19;13.13;;;11.20;;
5890;SDS011;2971;52.420;7.080;2023-06-22T12:41:45;17.73;;;10.40;;
5890;SDS011;2971;52.420;7.080;2023-06-22T12:44:10;11.57;;;10.37;;
5890;SDS011;2971;52.420;7.080;2023-06-22T12:46:36;11.83;;;10.50;;
5890;SDS011;2971;52.420;7.080;2023-06-22T12:49:03;12.53;;;11.33;;
5890;SDS011;2971;52.420;7.080;2023-06-22T12:51:30;11.67;;;9.60;;
5890;SDS011;2971;52.420;7.080;2023-06-22T12:53:55;11.80;;;10.57;;
5890;SDS011;2971;52.420;7.080;2023-06-22T12:56:21;14.60;;;10.13;;
5890;SDS011;2971;52.420;7.080;2023-06-22T12:58:46;11.43;;;10.23;;
5890;SDS011;2971;52.420;7.080;2023-06-22T13:01:12;11.13;;;10.03;;
5890;SDS011;2971;52.420;7.080;2023-06-22T13:03:37;11.10;;;10.00;;
5890;SDS011;2971;52.420;7.080;2023-06-22T13:06:03;10.40;;;9.37;;
5890;SDS011;2971;52.420;7.080;2023-06-22T13:08:28;14.23;;;10.77;;
5890;SDS011;2971;52.420;7.080;2023-06-22T13:10:54;12.83;;;11.13;;
5890;SDS011;2971;52.420;7.080;2023-06-22T13:13:23;12.93;;;11.13;;
5890;SDS011;2971;52.420;7.080;2023-06-22T13:15:49;12.07;;;10.73;;
5890;SDS011;2971;52.420;7.080;2023-06-22T13:18:15;13.70;;;12.30;;
5890;SDS011;2971;52.420;7.080;2023-06-22T13:20:40;12.97;;;11.67;;
5890;SDS011;2971;52.420;7.080;2023-06-22T13:23:06;14.53;;;12.57;;
5890;SDS011;2971;52.420;7.080;2023-06-22T13:25:31;15.77;;;12.80;;
5890;SDS011;2971;52.420;7.080;2023-06-22T13:27:57;14.90;;;13.30;;
5890;SDS011;2971;52.420;7.080;2023-06-22T13:30:22;16.30;;;13.90;;
5890;SDS011;2971;52.420;7.080;2023-06-22T13:32:48;16.40;;;13.57;;
5890;SDS011;2971;52.420;7.080;2023-06-22T13:35:13;16.13;;;13.60;;
5890;SDS011;2971;52.420;7.080;2023-06-22T13:37:38;16.37;;;13.50;;
5890;SDS011;2971;52.420;7.080;2023-06-22T13:40:05;16.53;;;14.03;;
5890;SDS011;2971;52.420;7.080;2023-06-22T13:42:32;17.23;;;13.83;;
5890;SDS011;2971;52.420;7.080;2023-06-22T13:44:57;17.37;;;14.50;;
5890;SDS011;2971;52.420;7.080;2023-06-22T13:47:23;19.50;;;15.87;;
5890;SDS011;2971;52.420;7.080;2023-06-22T13:49:48;16.87;;;15.20;;
5890;SDS011;2971;52.420;7.080;2023-06-22T13:52:13;17.53;;;15.73;;
5890;SDS011;2971;52.420;7.080;2023-06-22T13:54:39;18.83;;;16.83;;
5890;SDS011;2971;52.420;7.080;2023-06-22T13:57:04;19.13;;;16.63;;
5890;SDS011;2971;52.420;7.080;2023-06-22T13:59:34;20.20;;;17.07;;
5890;SDS011;2971;52.420;7.080;2023-06-22T14:01:59;22.40;;;20.37;;
5890;SDS011;2971;52.420;7.080;2023-06-22T14:04:25;19.33;;;17.40;;
5890;SDS011;2971;52.420;7.080;2023-06-22T14:06:50;22.70;;;17.27;;
5890;SDS011;2971;52.420;7.080;2023-06-22T14:09:16;19.77;;;17.67;;
5890;SDS011;2971;52.420;7.080;2023-06-22T14:11:41;19.83;;;17.83;;
5890;SDS011;2971;52.420;7.080;2023-06-22T14:14:07;20.60;;;18.60;;
5890;SDS011;2971;52.420;7.080;2023-06-22T14:16:32;22.27;;;19.83;;
5890;SDS011;2971;52.420;7.080;2023-06-22T14:18:58;24.70;;;21.27;;
5890;SDS011;2971;52.420;7.080;2023-06-22T14:21:23;23.17;;;20.77;;
5890;SDS011;2971;52.420;7.080;2023-06-22T14:23:48;23.83;;;19.97;;
5890;SDS011;2971;52.420;7.080;2023-06-22T14:26:17;22.73;;;20.53;;
5890;SDS011;2971;52.420;7.080;2023-06-22T14:28:44;23.23;;;20.87;;
5890;SDS011;2971;52.420;7.080;2023-06-22T14:31:14;23.60;;;21.10;;
5890;SDS011;2971;52.420;7.080;2023-06-22T14:33:40;24.57;;;22.10;;
5890;SDS011;2971;52.420;7.080;2023-06-22T14:36:05;26.87;;;22.73;;
5890;SDS011;2971;52.420;7.080;2023-06-22T14:38:31;25.50;;;22.83;;
5890;SDS011;2971;52.420;7.080;2023-06-22T14:40:56;24.33;;;21.10;;
5890;SDS011;2971;52.420;7.080;2023-06-22T14:43:22;23.40;;;21.13;;
5890;SDS011;2971;52.420;7.080;2023-06-22T14:45:47;24.17;;;21.77;;
5890;SDS011;2971;52.420;7.080;2023-06-22T14:48:13;23.50;;;20.80;;
5890;SDS011;2971;52.420;7.080;2023-06-22T14:50:38;24.50;;;21.83;;
5890;SDS011;2971;52.420;7.080;2023-06-22T14:53:03;24.23;;;21.63;;
5890;SDS011;2971;52.420;7.080;2023-06-22T14:55:29;23.87;;;21.47;;
5890;SDS011;2971;52.420;7.080;2023-06-22T14:57:54;24.77;;;22.17;;